Time;durP1;ratioP1;P1;durP2;ratioP2;P2;SDS_P1;SDS_P2;PMS_P1;PMS_P2;Temp;Humidity;BMP_temperature;BMP_pressure;BME280_temperature;BME280_humidity;BME280_pressure;Samples;Min_cycle;Max_cycle;Signal;HPM_P1;HPM_P2
2022/06/13 00:01:13;;;;;;;10.30;7.80;;;;;;;15.20;77.08;97984.34;108302;1288;22443;-84
2022/06/13 00:03:41;;;;;;;11.20;8.70;;;;;;;15.08;77.53;97983.21;108497;1287;22346;-85
2022/06/13 00:06:09;;;;;;;9.50;7.80;;;;;;;15.04;77.28;97982.27;108491;1286;22429;-85
2022/06/13 00:08:37;;;;;;;11.80;8.80;;;;;;;14.91;77.16;97977.98;108503;1286;22359;-84
2022/06/13 00:11:09;;;;;;;13.90;11.40;;;;;;;14.76;77.53;97971.77;108509;1286;22319;-85
2022/06/13 00:13:38;;;;;;;13.60;8.80;;;;;;;14.77;77.68;97971.36;108105;1287;22448;-85
2022/06/13 00:16:06;;;;;;;12.20;8.40;;;;;;;14.59;77.53;97970.06;108497;1286;22390;-89
2022/06/13 00:18:34;;;;;;;8.80;7.70;;;;;;;14.39;77.93;97967.40;108376;1286;22380;-85
2022/06/13 00:21:03;;;;;;;10.80;8.30;;;;;;;14.33;78.13;97962.95;108518;1286;22979;-89
2022/06/13 00:23:31;;;;;;;9.90;8.90;;;;;;;14.26;78.69;97951.89;108306;1287;22408;-88
2022/06/13 00:26:00;;;;;;;9.60;8.60;;;;;;;14.42;79.19;97950.08;108492;1286;22399;-92
2022/06/13 00:28:28;;;;;;;13.20;11.90;;;;;;;14.58;79.23;97946.74;108508;1287;23066;-88
2022/06/13 00:30:56;;;;;;;9.00;7.00;;;;;;;14.78;79.19;97939.09;108533;1286;23247;-88
2022/06/13 00:33:24;;;;;;;8.80;7.00;;;;;;;14.95;78.94;97932.02;108524;1287;23063;-92
2022/06/13 00:35:52;;;;;;;9.00;6.80;;;;;;;15.09;78.84;97932.02;108511;1287;22253;-84
2022/06/13 00:38:20;;;;;;;11.60;7.00;;;;;;;15.16;78.69;97936.88;108500;1287;22252;-84
2022/06/13 00:40:48;;;;;;;7.70;6.80;;;;;;;15.21;78.58;97931.27;108481;1286;23179;-86
2022/06/13 00:43:17;;;;;;;9.60;7.50;;;;;;;15.26;78.52;97928.10;108191;1287;22375;-84
2022/06/13 00:45:45;;;;;;;9.80;6.70;;;;;;;15.31;78.31;97925.35;108498;1287;22523;-85
2022/06/13 00:48:16;;;;;;;8.10;6.50;;;;;;;15.38;78.34;97924.55;108502;1286;22341;-86
2022/06/13 00:50:50;;;;;;;9.80;6.80;;;;;;;15.44;78.44;97920.67;108485;1286;22507;-83
2022/06/13 00:53:23;;;;;;;9.30;6.50;;;;;;;15.47;78.06;97917.05;108509;1287;22322;-86
2022/06/13 00:55:56;;;;;;;8.20;6.60;;;;;;;15.46;78.20;97908.94;108319;1287;22370;-86
2022/06/13 00:58:26;;;;;;;8.10;6.30;;;;;;;15.39;77.65;97910.55;108502;1287;22300;-86
2022/06/13 01:00:56;;;;;;;7.30;5.60;;;;;;;15.43;78.14;97907.94;108448;1287;22546;-90
2022/06/13 01:03:26;;;;;;;7.80;5.80;;;;;;;15.44;77.80;97910.80;108279;1287;23026;-82
2022/06/13 01:05:59;;;;;;;7.90;5.80;;;;;;;15.27;77.62;97909.85;108300;1287;22228;-82
2022/06/13 01:08:30;;;;;;;7.60;6.20;;;;;;;15.11;77.38;97907.11;108502;1287;22415;-82
2022/06/13 01:11:18;;;;;;;11.60;9.60;;;;;;;14.96;77.47;97899.98;108484;1286;22337;-83
2022/06/13 01:14:06;;;;;;;10.90;9.00;;;;;;;14.92;77.90;97895.77;108499;1287;22364;-82
2022/06/13 01:16:57;;;;;;;7.50;6.30;;;;;;;14.96;78.11;97888.36;108496;1287;22294;-87
2022/06/13 01:19:59;;;;;;;9.70;6.10;;;;;;;15.00;78.04;97881.83;108013;1287;22416;-87
2022/06/13 01:22:56;;;;;;;9.10;7.10;;;;;;;15.02;77.99;97878.49;108371;1287;22508;-86
2022/06/13 01:25:48;;;;;;;8.60;7.50;;;;;;;14.98;77.87;97872.35;108499;1287;22416;-84
2022/06/13 01:28:48;;;;;;;8.00;5.40;;;;;;;14.89;77.57;97872.25;108504;1287;22303;-83
2022/06/13 01:32:14;;;;;;;6.90;5.10;;;;;;;14.75;77.35;97871.84;108493;1286;22387;-84
2022/06/13 01:34:51;;;;;;;6.80;6.10;;;;;;;14.59;77.16;97874.05;107438;1294;22439;-84
2022/06/13 01:37:40;;;;;;;8.00;6.70;;;;;;;14.41;77.58;97874.78;107437;1294;22612;-83
2022/06/13 01:40:23;;;;;;;8.80;6.60;;;;;;;14.22;77.75;97878.60;107456;1294;22398;-83
2022/06/13 01:43:28;;;;;;;6.90;5.90;;;;;;;14.10;78.08;97876.33;107453;1294;22367;-83
2022/06/13 01:46:08;;;;;;;6.60;5.50;;;;;;;14.02;78.09;97871.27;107413;1295;22431;-83
2022/06/13 01:48:41;;;;;;;6.70;6.00;;;;;;;14.02;78.36;97870.19;107436;1294;22625;-84
2022/06/13 01:51:26;;;;;;;9.20;6.80;;;;;;;14.04;78.39;97862.98;107452;1294;22386;-83
2022/06/13 01:54:17;;;;;;;;;;;;;;;14.05;78.42;97863.96;107475;1294;22421;-85
2022/06/13 01:56:59;;;;;;;10.30;6.80;;;;;;;14.05;78.83;97857.95;107333;1296;23212;-86
2022/06/13 01:59:43;;;;;;;11.30;8.70;;;;;;;14.07;78.69;97857.63;107422;1294;22491;-85
2022/06/13 02:02:17;;;;;;;6.90;5.50;;;;;;;13.98;78.14;97854.91;107436;1294;23176;-85
2022/06/13 02:04:59;;;;;;;6.80;5.60;;;;;;;13.83;78.68;97855.98;107537;1294;22660;-86
2022/06/13 02:07:36;;;;;;;7.20;5.50;;;;;;;13.69;79.00;97851.43;107434;1294;22396;-85
2022/06/13 02:10:33;;;;;;;7.80;6.00;;;;;;;13.59;79.37;97847.59;108334;1287;22868;-84
2022/06/13 02:13:07;;;;;;;6.50;5.70;;;;;;;13.64;79.75;97838.76;108519;1287;22415;-83
2022/06/13 02:15:45;;;;;;;7.00;6.30;;;;;;;13.76;80.00;97839.96;108515;1286;22405;-82
2022/06/13 02:18:20;;;;;;;11.00;5.40;;;;;;;13.87;79.95;97831.15;108550;1287;22266;-85
2022/06/13 02:20:52;;;;;;;6.60;5.70;;;;;;;14.00;80.00;97826.36;108513;1287;22327;-84
2022/06/13 02:23:27;;;;;;;7.80;6.30;;;;;;;14.08;79.91;97823.99;108560;1286;22415;-84
2022/06/13 02:26:04;;;;;;;;;;;;;;;14.19;79.86;97823.73;108549;1287;23055;-84
2022/06/13 02:28:57;;;;;;;7.40;6.60;;;;;;;14.20;79.98;97822.45;108525;1286;22333;-84
2022/06/13 02:31:41;;;;;;;7.00;5.40;;;;;;;14.21;80.19;97821.98;108277;1287;22478;-85
2022/06/13 02:34:16;;;;;;;9.40;5.20;;;;;;;14.19;80.11;97822.44;108532;1286;22349;-84
2022/06/13 02:37:19;;;;;;;6.60;5.50;;;;;;;14.17;79.98;97819.89;108510;1287;22314;-84
2022/06/13 02:39:53;;;;;;;10.00;6.00;;;;;;;14.17;79.77;97816.23;107414;1295;22625;-84
2022/06/13 02:42:40;;;;;;;6.30;5.60;;;;;;;14.14;79.81;97816.73;107394;1296;22062;-86
2022/06/13 02:45:22;;;;;;;6.90;5.60;;;;;;;14.13;79.97;97804.69;107404;1296;22558;-84
2022/06/13 02:48:00;;;;;;;8.90;6.00;;;;;;;14.19;80.03;97802.77;107403;1297;22421;-83
2022/06/13 02:50:55;;;;;;;9.60;8.60;;;;;;;14.26;79.97;97798.70;107413;1295;22465;-84
2022/06/13 02:53:59;;;;;;;7.20;5.90;;;;;;;14.33;80.07;97796.08;107399;1297;22321;-84
2022/06/13 02:56:37;;;;;;;8.80;7.30;;;;;;;14.43;80.22;97797.46;107244;1295;22497;-84
2022/06/13 02:59:27;;;;;;;6.90;6.20;;;;;;;14.50;80.35;97798.89;107276;1297;22923;-85
2022/06/13 03:02:00;;;;;;;7.30;5.30;;;;;;;14.56;80.20;97807.55;107151;1297;22297;-84
2022/06/13 03:04:40;;;;;;;5.60;4.90;;;;;;;14.63;80.17;97812.61;107267;1297;22359;-85
2022/06/13 03:07:19;;;;;;;6.80;5.40;;;;;;;14.66;80.04;97817.24;107265;1296;22289;-84
2022/06/13 03:09:59;;;;;;;7.20;5.50;;;;;;;14.69;80.17;97813.48;107308;1296;23285;-84
2022/06/13 03:12:35;;;;;;;8.20;4.90;;;;;;;14.74;80.07;97810.84;107286;1296;22407;-83
2022/06/13 03:15:27;;;;;;;5.90;4.80;;;;;;;14.78;80.07;97808.00;107283;1296;22427;-83
2022/06/13 03:18:04;;;;;;;12.10;11.00;;;;;;;14.88;80.07;97809.42;108189;1290;22970;-84
2022/06/13 03:20:54;;;;;;;9.90;8.90;;;;;;;15.01;80.29;97807.05;108136;1289;22771;-82
2022/06/13 03:23:39;;;;;;;13.60;12.40;;;;;;;15.18;80.17;97805.75;108166;1289;22408;-83
2022/06/13 03:26:20;;;;;;;9.40;5.90;;;;;;;15.28;79.93;97805.48;108125;1289;22398;-84
2022/06/13 03:29:03;;;;;;;9.00;6.50;;;;;;;15.34;79.84;97804.39;108506;1287;22404;-82
2022/06/13 03:31:40;;;;;;;7.80;5.30;;;;;;;15.33;79.60;97806.75;108276;1287;22290;-82
2022/06/13 03:34:18;;;;;;;6.40;4.60;;;;;;;15.39;79.77;97812.02;108507;1286;22340;-81
2022/06/13 03:36:53;;;;;;;6.90;4.80;;;;;;;15.49;79.75;97808.89;108281;1287;22986;-83
2022/06/13 03:39:27;;;;;;;9.10;5.10;;;;;;;15.54;79.60;97806.90;108513;1287;22499;-83
2022/06/13 03:42:06;;;;;;;5.90;5.00;;;;;;;15.55;79.40;97806.92;108544;1287;22259;-85
2022/06/13 03:44:42;;;;;;;6.00;4.80;;;;;;;15.54;79.59;97802.01;108295;1287;22948;-84
2022/06/13 03:47:20;;;;;;;5.50;4.20;;;;;;;15.55;79.59;97804.70;108541;1286;23096;-84
2022/06/13 03:49:51;;;;;;;6.30;4.80;;;;;;;15.55;79.62;97801.81;108533;1286;22342;-84
2022/06/13 03:52:20;;;;;;;5.30;4.60;;;;;;;15.57;79.78;97796.29;108538;1287;22469;-85
2022/06/13 03:54:57;;;;;;;7.00;5.40;;;;;;;15.67;79.79;97798.52;108518;1287;22202;-84
2022/06/13 03:57:34;;;;;;;7.70;4.70;;;;;;;15.77;79.73;97804.41;108531;1286;23067;-85
2022/06/13 04:00:14;;;;;;;7.10;5.10;;;;;;;15.87;79.61;97797.85;108528;1286;22587;-84
2022/06/13 04:02:44;;;;;;;6.70;4.60;;;;;;;16.02;79.54;97793.92;108309;1287;22367;-85
2022/06/13 04:05:27;;;;;;;6.30;5.00;;;;;;;16.16;79.53;97787.80;108283;1286;22308;-84
2022/06/13 04:07:55;;;;;;;8.10;5.70;;;;;;;16.27;79.52;97782.63;108544;1286;22439;-86
2022/06/13 04:10:25;;;;;;;6.50;5.60;;;;;;;16.34;79.33;97778.06;108527;1287;22511;-86
2022/06/13 04:13:11;;;;;;;9.70;8.70;;;;;;;16.42;79.24;97777.36;108512;1286;22388;-87
2022/06/13 04:15:48;;;;;;;8.30;7.30;;;;;;;16.50;79.17;97775.60;108288;1287;22400;-86
2022/06/13 04:18:19;;;;;;;7.40;5.80;;;;;;;16.63;79.23;97776.22;108539;1286;22870;-86
2022/06/13 04:21:03;;;;;;;7.20;6.50;;;;;;;16.74;79.05;97773.17;108559;1286;23032;-84
2022/06/13 04:23:50;;;;;;;7.40;6.50;;;;;;;16.83;78.87;97775.95;108299;1287;22539;-85
2022/06/13 04:26:27;;;;;;;9.40;5.50;;;;;;;16.85;78.71;97774.15;108520;1287;22321;-85
2022/06/13 04:29:04;;;;;;;8.00;5.30;;;;;;;16.89;78.67;97778.61;108582;1285;22369;-86
2022/06/13 04:31:34;;;;;;;9.40;5.20;;;;;;;16.95;78.53;97775.62;108516;1286;22377;-85
2022/06/13 04:34:14;;;;;;;8.90;6.10;;;;;;;17.02;78.51;97777.08;108533;1287;22385;-85
2022/06/13 04:36:49;;;;;;;7.60;5.30;;;;;;;17.10;78.22;97776.80;108519;1285;22405;-85
2022/06/13 04:39:24;;;;;;;7.10;5.40;;;;;;;17.15;78.30;97772.95;108524;1287;22358;-84
2022/06/13 04:41:55;;;;;;;8.10;5.60;;;;;;;17.20;78.09;97772.48;108280;1287;22291;-85
2022/06/13 04:44:25;;;;;;;9.70;6.90;;;;;;;17.22;78.05;97768.62;108515;1286;22384;-85
2022/06/13 04:46:55;;;;;;;8.90;5.90;;;;;;;17.32;78.25;97765.86;108525;1285;23089;-85
2022/06/13 04:49:31;;;;;;;7.50;5.70;;;;;;;17.47;78.27;97767.52;108294;1287;22476;-85
2022/06/13 04:52:08;;;;;;;9.00;5.00;;;;;;;17.59;78.17;97760.23;108511;1287;22367;-86
2022/06/13 04:54:59;;;;;;;7.60;5.40;;;;;;;17.76;78.13;97762.58;108250;1287;22422;-86
2022/06/13 04:57:28;;;;;;;10.10;5.80;;;;;;;17.88;78.08;97761.33;108492;1287;22356;-86
2022/06/13 04:59:57;;;;;;;9.30;6.00;;;;;;;17.95;77.86;97760.67;108548;1287;22419;-86
2022/06/13 05:02:45;;;;;;;7.20;5.20;;;;;;;18.08;77.83;97761.63;108496;1287;22333;-86
2022/06/13 05:05:39;;;;;;;7.00;5.40;;;;;;;18.24;77.60;97757.86;108492;1284;23125;-86
2022/06/13 05:08:36;;;;;;;7.50;5.30;;;;;;;18.39;77.44;97751.31;108366;1287;22424;-87
2022/06/13 05:11:16;;;;;;;8.20;5.40;;;;;;;18.52;76.99;97754.98;108376;1287;22513;-85
2022/06/13 05:13:48;;;;;;;6.00;4.80;;;;;;;18.63;77.00;97761.30;108494;1287;22365;-87
2022/06/13 05:16:39;;;;;;;7.60;5.10;;;;;;;18.81;76.86;97763.91;108508;1286;22951;-87
2022/06/13 05:19:31;;;;;;;8.10;5.60;;;;;;;19.04;76.70;97758.09;108470;1286;23466;-87
2022/06/13 05:22:18;;;;;;;9.50;5.60;;;;;;;19.25;76.31;97757.83;108467;1287;22352;-87
2022/06/13 05:24:55;;;;;;;11.30;5.10;;;;;;;19.38;76.12;97758.88;108516;1287;22207;-87
2022/06/13 05:27:23;;;;;;;7.60;4.30;;;;;;;19.52;75.66;97755.40;108472;1287;23039;-83
2022/06/13 05:29:51;;;;;;;7.50;4.70;;;;;;;19.66;75.07;97756.16;108462;1286;22332;-83
2022/06/13 05:32:21;;;;;;;5.40;4.00;;;;;;;19.77;74.30;97755.89;108489;1286;22261;-83
2022/06/13 05:34:50;;;;;;;6.30;4.40;;;;;;;19.86;74.03;97754.27;108493;1286;22422;-83
2022/06/13 05:37:19;;;;;;;6.20;4.30;;;;;;;19.94;73.65;97753.48;108481;1285;22957;-83
2022/06/13 05:39:47;;;;;;;7.60;4.60;;;;;;;20.00;73.09;97751.31;108497;1287;23090;-85
2022/06/13 05:42:15;;;;;;;6.00;4.10;;;;;;;20.07;72.86;97749.02;108489;1286;22376;-85
2022/06/13 05:44:43;;;;;;;5.50;3.90;;;;;;;20.17;71.96;97750.82;108496;1287;22359;-85
2022/06/13 05:47:18;;;;;;;7.70;4.40;;;;;;;20.21;71.92;97748.14;108499;1286;22432;-85
2022/06/13 05:49:46;;;;;;;8.50;5.10;;;;;;;20.27;71.48;97754.73;108507;1286;22584;-85
2022/06/13 05:52:14;;;;;;;7.10;4.90;;;;;;;20.35;71.26;97753.13;108527;1287;22369;-85
2022/06/13 05:54:42;;;;;;;9.90;5.40;;;;;;;20.49;71.06;97752.10;108500;1286;22356;-85
2022/06/13 05:57:11;;;;;;;6.00;4.80;;;;;;;20.63;70.20;97753.44;108533;1286;22288;-84
2022/06/13 05:59:39;;;;;;;11.50;4.80;;;;;;;20.79;68.98;97758.75;108489;1286;23336;-84
2022/06/13 06:02:09;;;;;;;6.80;4.30;;;;;;;20.90;69.14;97767.45;108487;1287;22312;-84
2022/06/13 06:04:37;;;;;;;7.10;4.10;;;;;;;21.01;68.02;97765.40;108506;1287;23381;-83
2022/06/13 06:07:05;;;;;;;6.40;4.60;;;;;;;20.99;67.02;97763.50;108506;1286;22374;-85
2022/06/13 06:09:33;;;;;;;7.60;4.40;;;;;;;21.05;67.89;97760.54;108469;1287;23090;-83
2022/06/13 06:12:02;;;;;;;5.80;4.40;;;;;;;21.16;67.76;97760.98;108278;1287;22292;-84
2022/06/13 06:14:30;;;;;;;8.10;4.50;;;;;;;21.27;67.62;97761.83;108500;1287;22289;-84
2022/06/13 06:16:58;;;;;;;6.80;4.30;;;;;;;21.35;67.24;97761.08;108497;1287;22366;-84
2022/06/13 06:19:26;;;;;;;7.30;5.10;;;;;;;21.38;66.62;97754.55;108512;1286;22291;-84
2022/06/13 06:21:54;;;;;;;6.50;4.70;;;;;;;21.42;66.38;97758.91;108505;1287;22351;-85
2022/06/13 06:24:22;;;;;;;7.10;4.60;;;;;;;21.46;65.85;97760.83;108483;1287;22419;-85
2022/06/13 06:26:50;;;;;;;8.30;5.10;;;;;;;21.48;65.84;97763.20;108506;1287;22370;-85
2022/06/13 06:29:17;;;;;;;10.30;6.10;;;;;;;21.46;65.13;97769.29;108500;1287;22370;-86
2022/06/13 06:31:45;;;;;;;10.10;5.20;;;;;;;21.38;63.55;97777.80;108515;1286;22452;-87
2022/06/13 06:34:13;;;;;;;8.90;4.70;;;;;;;21.25;60.90;97816.29;108496;1287;22345;-85
2022/06/13 06:36:41;;;;;;;7.40;4.80;;;;;;;21.02;61.12;97802.67;108549;1286;22298;-85
2022/06/13 06:39:09;;;;;;;9.00;5.60;;;;;;;20.81;61.22;97819.96;108499;1287;22371;-84
2022/06/13 06:41:37;;;;;;;6.70;5.00;;;;;;;20.63;61.98;97813.58;108505;1287;22353;-85
2022/06/13 06:44:05;;;;;;;7.30;5.10;;;;;;;20.40;62.57;97825.39;108505;1287;23068;-85
2022/06/13 06:46:33;;;;;;;5.90;5.00;;;;;;;20.20;63.16;97818.23;108488;1286;22297;-84
2022/06/13 06:49:01;;;;;;;10.30;5.20;;;;;;;20.04;63.56;97801.92;108315;1287;22323;-86
2022/06/13 06:51:29;;;;;;;7.60;5.60;;;;;;;20.04;64.48;97806.07;108496;1286;22362;-87
2022/06/13 07:02:17;;;;;;;7.80;7.00;;;;;;;20.25;63.54;97795.73;108452;1287;23083;-85
2022/06/13 07:04:45;;;;;;;9.00;7.00;;;;;;;20.39;63.16;97790.66;108297;1287;22696;-84
2022/06/13 07:07:13;;;;;;;9.10;6.60;;;;;;;20.58;63.31;97784.41;108479;1286;22371;-85
2022/06/13 07:09:40;;;;;;;9.80;6.80;;;;;;;20.77;63.03;97782.45;108367;1287;22443;-85
2022/06/13 07:12:10;;;;;;;9.60;7.00;;;;;;;20.84;61.19;97780.91;108036;1288;22335;-85
2022/06/13 07:14:38;;;;;;;10.60;6.60;;;;;;;20.84;60.25;97780.90;108362;1286;22537;-85
2022/06/13 07:17:08;;;;;;;9.90;7.60;;;;;;;20.74;59.94;97780.59;108055;1287;22443;-86
2022/06/13 07:19:37;;;;;;;11.30;7.70;;;;;;;20.57;60.35;97785.95;107772;1288;22318;-83
2022/06/13 07:22:07;;;;;;;10.50;7.10;;;;;;;20.61;60.95;97786.11;108285;1287;22379;-83
2022/06/13 07:24:34;;;;;;;10.50;8.00;;;;;;;20.68;60.85;97781.06;108120;1287;22371;-83
2022/06/13 07:27:03;;;;;;;14.30;7.30;;;;;;;20.71;61.05;97776.16;108280;1287;22381;-83
2022/06/13 07:29:31;;;;;;;11.70;6.90;;;;;;;20.79;61.43;97772.45;108305;1287;22422;-84
2022/06/13 07:32:14;;;;;;;9.60;7.00;;;;;;;20.98;61.59;97770.38;108240;1287;22284;-83
2022/06/13 07:34:44;;;;;;;11.90;7.60;;;;;;;21.16;60.53;97769.59;108211;1287;22390;-85
2022/06/13 07:38:16;;;;;;;12.70;6.70;;;;;;;21.25;59.90;97767.34;108109;1287;23116;-85
2022/06/13 07:40:05;;;;;;;13.70;6.60;;;;;;;21.43;60.13;97764.40;108430;1287;22376;-85
2022/06/13 07:42:39;;;;;;;13.40;7.20;;;;;;;21.64;58.79;97759.39;108443;1287;22784;-86
2022/06/13 07:45:12;;;;;;;10.10;6.20;;;;;;;21.73;59.07;97760.27;108423;1286;22474;-86
2022/06/13 07:48:00;;;;;;;9.10;5.70;;;;;;;21.95;56.83;97757.82;108413;1287;22278;-87
2022/06/13 07:50:29;;;;;;;8.70;5.70;;;;;;;22.02;56.75;97753.34;108427;1287;22410;-86
2022/06/13 07:52:57;;;;;;;9.40;5.80;;;;;;;22.25;57.64;97752.38;108402;1286;23268;-86
2022/06/13 07:55:27;;;;;;;7.10;5.50;;;;;;;22.40;57.67;97755.75;108434;1287;23180;-87
2022/06/13 07:57:55;;;;;;;9.90;4.90;;;;;;;22.44;56.39;97755.62;108455;1287;22478;-88
2022/06/13 08:00:30;;;;;;;8.40;5.60;;;;;;;22.53;55.92;97766.73;108338;1287;23052;-86
2022/06/13 08:03:00;;;;;;;9.10;5.40;;;;;;;22.54;56.40;97766.90;108408;1287;22355;-86
2022/06/13 08:05:29;;;;;;;8.30;4.90;;;;;;;22.57;55.77;97770.23;108212;1287;22463;-84
2022/06/13 08:07:57;;;;;;;10.70;5.60;;;;;;;22.54;55.36;97771.37;108433;1287;23268;-87
2022/06/13 08:10:25;;;;;;;10.20;5.50;;;;;;;22.58;55.46;97776.59;108313;1287;22496;-86
2022/06/13 08:12:54;;;;;;;7.70;4.50;;;;;;;22.58;54.62;97779.02;108415;1287;22400;-84
2022/06/13 08:15:24;;;;;;;8.50;4.80;;;;;;;22.50;54.18;97775.51;108397;1286;22473;-83
2022/06/13 08:17:52;;;;;;;7.40;5.00;;;;;;;22.57;54.87;97772.97;108407;1287;23190;-84
2022/06/13 08:20:20;;;;;;;7.70;4.80;;;;;;;22.66;54.45;97789.82;108394;1287;22338;-84
2022/06/13 08:22:48;;;;;;;8.60;5.70;;;;;;;22.77;54.52;97793.98;108411;1287;22407;-84
2022/06/13 08:25:26;;;;;;;8.40;5.00;;;;;;;22.80;52.72;97805.06;108246;1287;22385;-83
2022/06/13 08:27:56;;;;;;;9.00;6.00;;;;;;;22.62;53.31;97796.54;108426;1287;22402;-84
2022/06/13 08:30:29;;;;;;;9.70;5.60;;;;;;;22.40;53.89;97809.94;108281;1286;22537;-85
2022/06/13 08:32:57;;;;;;;7.50;6.10;;;;;;;22.11;54.38;97812.38;108332;1287;22460;-86
2022/06/13 08:35:26;;;;;;;8.80;4.80;;;;;;;21.77;55.59;97810.92;108266;1287;22277;-85
2022/06/13 08:38:05;;;;;;;5.40;4.50;;;;;;;21.24;56.75;97807.35;108413;1287;22587;-84
2022/06/13 08:40:50;;;;;;;6.10;3.50;;;;;;;20.90;56.90;97806.50;108409;1287;22499;-85
2022/06/13 08:43:50;;;;;;;8.30;3.40;;;;;;;20.64;56.46;97806.56;108246;1287;22996;-85
2022/06/13 08:46:21;;;;;;;5.80;3.20;;;;;;;20.41;57.21;97813.20;108391;1287;22384;-86
2022/06/13 08:48:59;;;;;;;6.10;3.30;;;;;;;20.29;57.52;97807.98;108402;1286;22439;-85
2022/06/13 08:51:57;;;;;;;3.40;2.60;;;;;;;20.07;58.18;97810.96;108249;1287;22406;-83
2022/06/13 08:54:31;;;;;;;5.70;2.60;;;;;;;19.85;58.70;97811.83;108390;1287;22394;-81
2022/06/13 08:57:04;;;;;;;3.20;2.50;;;;;;;19.80;58.75;97810.63;108420;1287;22376;-84
2022/06/13 08:59:39;;;;;;;2.30;2.10;;;;;;;19.69;59.69;97811.36;108374;1286;22293;-83
2022/06/13 09:02:28;;;;;;;6.00;2.50;;;;;;;19.57;60.02;97811.48;108242;1287;22345;-84
2022/06/13 09:05:11;;;;;;;4.60;2.60;;;;;;;19.57;60.31;97812.73;108415;1286;23034;-84
2022/06/13 09:07:46;;;;;;;5.20;2.50;;;;;;;19.66;60.19;97808.17;108395;1286;23047;-84
2022/06/13 09:10:25;;;;;;;2.20;2.00;;;;;;;19.55;60.60;97812.39;108391;1287;22298;-83
2022/06/13 09:13:08;;;;;;;3.80;2.70;;;;;;;19.45;61.16;97806.72;108375;1287;22403;-86
2022/06/13 09:15:47;;;;;;;4.30;2.40;;;;;;;19.48;61.43;97802.02;108407;1287;22501;-85
2022/06/13 09:18:29;;;;;;;5.90;2.80;;;;;;;19.52;61.37;97798.41;108399;1287;22369;-86
2022/06/13 09:21:21;;;;;;;3.50;2.50;;;;;;;19.60;61.37;97803.88;108246;1287;22389;-84
2022/06/13 09:24:23;;;;;;;6.30;2.90;;;;;;;19.67;61.14;97807.10;108396;1287;22520;-86
2022/06/13 09:27:11;;;;;;;;;;;;;;;19.79;61.18;97811.23;108446;1287;22550;-84
2022/06/13 09:29:50;;;;;;;4.10;2.50;;;;;;;19.89;61.33;97803.85;108424;1286;22343;-84
2022/06/13 09:32:21;;;;;;;3.20;2.80;;;;;;;19.95;61.44;97805.36;108423;1287;23148;-83
2022/06/13 09:34:59;;;;;;;7.10;3.20;;;;;;;20.00;61.40;97808.88;108399;1287;22330;-84
2022/06/13 09:37:37;;;;;;;4.80;2.80;;;;;;;19.98;61.52;97809.17;108384;1287;22386;-84
2022/06/13 09:40:06;;;;;;;3.30;2.60;;;;;;;19.87;61.20;97808.98;108080;1287;22327;-83
2022/06/13 09:42:42;;;;;;;4.10;2.80;;;;;;;19.84;61.88;97809.45;108410;1286;22400;-83
2022/06/13 09:45:39;;;;;;;7.50;3.00;;;;;;;19.86;61.88;97814.89;108276;1287;22306;-83
2022/06/13 09:48:19;;;;;;;4.00;2.60;;;;;;;19.76;61.68;97815.86;108371;1287;22404;-82
2022/06/13 09:51:00;;;;;;;4.00;2.90;;;;;;;19.61;62.10;97814.13;108432;1287;23291;-83
2022/06/13 09:54:09;;;;;;;5.30;3.20;;;;;;;19.48;62.54;97799.69;108395;1287;22405;-84
2022/06/13 09:56:52;;;;;;;3.70;2.50;;;;;;;19.44;62.39;97788.04;107428;1294;22458;-84
2022/06/13 09:59:43;;;;;;;6.00;3.00;;;;;;;19.45;62.48;97781.27;107415;1294;22450;-84
2022/06/13 10:02:24;;;;;;;7.70;3.20;;;;;;;19.55;62.55;97785.60;107380;1294;22414;-84
2022/06/13 10:05:23;;;;;;;8.20;3.70;;;;;;;19.69;62.58;97786.68;107412;1294;22544;-83
2022/06/13 10:08:12;;;;;;;7.80;3.30;;;;;;;19.82;62.58;97785.20;107361;1294;22392;-84
2022/06/13 10:10:59;;;;;;;4.40;3.00;;;;;;;19.94;62.13;97785.42;107399;1294;22315;-84
2022/06/13 10:13:39;;;;;;;5.60;3.70;;;;;;;20.00;62.22;97779.52;107379;1294;23415;-85
2022/06/13 10:16:24;;;;;;;4.70;3.60;;;;;;;20.05;61.72;97780.60;107415;1294;22443;-82
2022/06/13 10:19:05;;;;;;;4.20;3.00;;;;;;;20.05;61.88;97781.02;107357;1294;22889;-83
2022/06/13 10:21:57;;;;;;;5.50;3.80;;;;;;;20.16;62.04;97775.27;107209;1294;271282;-84
2022/06/13 10:24:37;;;;;;;8.80;6.50;;;;;;;20.27;62.10;97768.33;107421;1294;22433;-85
2022/06/13 10:27:17;;;;;;;5.90;4.90;;;;;;;20.32;61.97;97772.71;107432;1294;22382;-84
2022/06/13 10:30:00;;;;;;;7.30;6.30;;;;;;;20.17;61.41;97779.17;107404;1293;22300;-85
2022/06/13 10:32:55;;;;;;;30.20;27.20;;;;;;;20.02;61.81;97779.55;108351;1286;22505;-83
2022/06/13 10:35:31;;;;;;;17.40;15.60;;;;;;;19.80;62.20;97780.40;108383;1287;22471;-86
2022/06/13 10:38:11;;;;;;;14.10;12.70;;;;;;;19.59;62.74;97779.80;108250;1287;22995;-85
2022/06/13 10:40:40;;;;;;;18.90;16.40;;;;;;;19.45;62.96;97782.97;108368;1287;22738;-84
2022/06/13 10:43:09;;;;;;;7.80;6.10;;;;;;;19.36;63.69;97787.08;108296;1287;22991;-84
2022/06/13 10:45:40;;;;;;;10.70;5.30;;;;;;;19.15;64.02;97779.23;108176;1287;23151;-84
2022/06/13 10:48:24;;;;;;;11.20;4.20;;;;;;;19.00;64.27;97774.32;108412;1287;22405;-84
2022/06/13 10:50:59;;;;;;;6.20;4.40;;;;;;;18.92;64.44;97755.10;108274;1287;22311;-83
2022/06/13 10:53:47;;;;;;;6.30;3.80;;;;;;;18.89;65.10;97756.05;108367;1287;22289;-84
2022/06/13 10:56:21;;;;;;;5.60;3.40;;;;;;;18.84;65.44;97761.63;108326;1287;22378;-88
2022/06/13 10:58:52;;;;;;;10.80;4.00;;;;;;;18.79;65.52;97766.91;108257;1287;22437;-84
2022/06/13 11:01:26;;;;;;;11.70;5.20;;;;;;;18.81;65.96;97768.05;108399;1287;22490;-84
2022/06/13 11:04:17;;;;;;;14.60;6.80;;;;;;;18.87;66.07;97760.92;108391;1287;23106;-84
2022/06/13 11:06:47;;;;;;;9.90;4.60;;;;;;;18.96;65.93;97755.83;108097;1288;22437;-85
2022/06/13 11:09:37;;;;;;;11.30;4.20;;;;;;;19.10;66.28;97746.84;108147;1287;22403;-86
2022/06/13 11:12:20;;;;;;;11.30;4.30;;;;;;;19.29;66.70;97747.05;108395;1287;22308;-86
2022/06/13 11:23:37;;;;;;;6.70;4.20;;;;;;;19.62;65.62;97736.38;108387;1287;22326;-86
2022/06/13 11:27:39;;;;;;;10.30;4.80;;;;;;;19.59;65.36;97738.98;108260;1287;23066;-85
2022/06/13 11:28:54;;;;;;;15.00;4.70;;;;;;;19.60;65.05;97737.27;108390;1287;22501;-85
2022/06/13 11:31:25;;;;;;;11.80;5.50;;;;;;;19.58;64.96;97735.67;108267;1287;22419;-87
2022/06/13 11:33:54;;;;;;;7.80;4.30;;;;;;;19.62;64.78;97741.30;108268;1286;22443;-86
2022/06/13 11:36:26;;;;;;;8.30;4.80;;;;;;;19.66;64.65;97738.27;108379;1287;22366;-85
2022/06/13 11:38:59;;;;;;;9.20;4.80;;;;;;;19.76;64.59;97735.89;108390;1287;23680;-86
2022/06/13 11:41:41;;;;;;;19.60;13.40;;;;;;;19.82;64.48;97731.78;108398;1287;23199;-86
2022/06/13 11:44:13;;;;;;;6.20;3.50;;;;;;;19.91;63.94;97737.23;108361;1287;22437;-83
2022/06/13 11:46:51;;;;;;;11.80;6.90;;;;;;;19.95;63.80;97737.70;108379;1287;23107;-83
2022/06/13 11:49:35;;;;;;;8.00;5.00;;;;;;;20.00;63.72;97734.65;108375;1286;22453;-81
2022/06/13 11:55:18;;;;;;;8.60;5.00;;;;;;;19.98;63.74;97738.21;108381;1286;22224;-83
2022/06/13 11:57:52;;;;;;;9.00;4.50;;;;;;;19.90;63.97;97731.67;108390;1286;22356;-84
2022/06/13 12:00:19;;;;;;;8.50;4.50;;;;;;;19.90;64.22;97724.97;108375;1287;22387;-84
2022/06/13 12:02:47;;;;;;;9.90;4.50;;;;;;;20.02;64.31;97723.98;108379;1287;22492;-83
2022/06/13 12:05:15;;;;;;;7.20;3.90;;;;;;;20.16;64.30;97724.69;108378;1287;23158;-83
2022/06/13 12:07:52;;;;;;;7.00;4.50;;;;;;;20.32;64.04;97720.42;108314;1286;22599;-84
2022/06/13 12:10:25;;;;;;;9.40;7.10;;;;;;;20.70;63.56;97719.35;108374;1287;22374;-84
2022/06/13 12:12:54;;;;;;;5.10;3.40;;;;;;;20.82;61.35;97725.88;108377;1286;22160;-85
2022/06/13 12:15:40;;;;;;;6.80;4.80;;;;;;;20.75;59.91;97726.77;108371;1287;22686;-86
2022/06/13 12:18:17;;;;;;;6.70;3.60;;;;;;;20.51;59.80;97732.59;108264;1287;22302;-86
2022/06/13 12:21:03;;;;;;;7.10;4.00;;;;;;;20.45;59.75;97734.21;108366;1287;22383;-86
2022/06/13 12:23:54;;;;;;;7.60;3.80;;;;;;;20.46;60.12;97722.58;108371;1287;23114;-86
2022/06/13 12:26:24;;;;;;;10.70;4.70;;;;;;;20.55;60.39;97718.67;108383;1286;23124;-85
2022/06/13 12:28:59;;;;;;;6.30;4.20;;;;;;;20.60;60.77;97714.45;108384;1287;23176;-85